Time;durP1;ratioP1;P1;durP2;ratioP2;P2;SDS_P1;SDS_P2;PMS_P1;PMS_P2;Temp;Humidity;BMP_temperature;BMP_pressure;BME280_temperature;BME280_humidity;BME280_pressure;Samples;Min_cycle;Max_cycle;Signal;HPM_P1;HPM_P2
2022/08/04 00:01:06;;;;;;;5.82;3.55;;;;;;;29.45;66.33;101155.41;7393987;19;20015;-60
2022/08/04 00:03:44;;;;;;;9.57;3.40;;;;;;;29.40;66.93;101147.84;7395134;19;20081;-59
2022/08/04 00:06:26;;;;;;;8.55;3.70;;;;;;;29.29;67.83;101145.59;7394733;19;20018;-60
2022/08/04 00:08:58;;;;;;;7.90;3.93;;;;;;;29.30;67.79;101149.97;7393944;19;20023;-60
2022/08/04 00:11:32;;;;;;;6.75;3.60;;;;;;;29.31;67.16;101146.25;7394665;19;20011;-59
2022/08/04 00:14:05;;;;;;;5.95;3.55;;;;;;;29.37;67.18;101142.81;7392482;19;20021;-60
2022/08/04 00:16:37;;;;;;;8.60;3.90;;;;;;;29.37;66.67;101141.97;7395839;19;20443;-59
2022/08/04 00:19:12;;;;;;;7.00;4.10;;;;;;;29.32;67.91;101145.22;7394252;19;20022;-60
2022/08/04 00:21:47;;;;;;;5.40;3.70;;;;;;;29.26;69.04;101140.56;7392868;19;20043;-60
2022/08/04 00:24:17;;;;;;;6.50;3.67;;;;;;;29.25;68.93;101131.63;7394898;19;20015;-59
2022/08/04 00:26:49;;;;;;;6.28;3.70;;;;;;;29.28;68.49;101142.03;7394362;19;20035;-60
2022/08/04 00:29:18;;;;;;;7.00;3.77;;;;;;;29.30;67.75;101133.75;7396028;19;20029;-59
2022/08/04 00:31:48;;;;;;;8.10;3.50;;;;;;;29.31;67.29;101135.44;7391830;19;20286;-61
2022/08/04 00:34:17;;;;;;;8.07;3.97;;;;;;;29.39;66.70;101135.38;7391763;19;20015;-60
2022/08/04 00:36:46;;;;;;;8.18;3.70;;;;;;;29.32;67.21;101137.97;7393861;19;20015;-61
2022/08/04 00:39:18;;;;;;;7.97;3.97;;;;;;;29.18;68.23;101123.38;7392904;19;20010;-61
2022/08/04 00:42:02;;;;;;;7.30;3.83;;;;;;;29.14;68.51;101122.09;7393032;19;20479;-61
2022/08/04 00:44:40;;;;;;;7.53;4.07;;;;;;;29.08;68.73;101120.13;7396383;19;20018;-60
2022/08/04 00:47:34;;;;;;;7.85;3.83;;;;;;;28.98;69.61;101111.44;7394634;19;20025;-61
2022/08/04 00:50:12;;;;;;;8.85;4.18;;;;;;;28.99;69.17;101115.81;7393683;19;20029;-60
2022/08/04 00:53:08;;;;;;;7.13;4.43;;;;;;;28.96;69.47;101117.03;7393042;19;20021;-59
2022/08/04 00:55:55;;;;;;;7.40;4.18;;;;;;;28.94;69.54;101124.47;7392608;19;20014;-60
2022/08/04 00:58:37;;;;;;;7.72;3.90;;;;;;;28.99;69.31;101113.13;7392250;19;20018;-61
2022/08/04 01:01:10;;;;;;;9.13;3.97;;;;;;;28.92;70.00;101110.31;7394850;19;20022;-59
2022/08/04 01:03:51;;;;;;;9.40;4.20;;;;;;;28.90;70.80;101108.81;7393130;19;20441;-60
2022/08/04 01:06:33;;;;;;;8.40;4.03;;;;;;;28.86;71.52;101111.03;7393075;19;20014;-60
2022/08/04 01:09:37;;;;;;;7.82;4.20;;;;;;;28.87;71.33;101106.47;7392461;19;20014;-60
2022/08/04 01:12:25;;;;;;;5.82;3.80;;;;;;;28.85;71.61;101105.84;7391216;19;20340;-60
2022/08/04 01:15:07;;;;;;;7.53;3.95;;;;;;;28.87;71.71;101103.78;7392525;19;20026;-60
2022/08/04 01:17:48;;;;;;;5.93;3.85;;;;;;;28.82;71.31;101099.75;7394710;19;20360;-60
2022/08/04 01:20:22;;;;;;;7.72;4.70;;;;;;;28.78;71.90;101098.44;7391788;19;20082;-58
2022/08/04 01:23:21;;;;;;;8.65;4.15;;;;;;;28.71;72.36;101093.97;7395995;19;20337;-60
2022/08/04 01:26:25;;;;;;;6.60;4.57;;;;;;;28.71;71.70;101091.28;7392895;19;20025;-61
2022/08/04 01:29:08;;;;;;;7.32;4.13;;;;;;;28.69;71.34;101087.94;7392167;19;20344;-59
2022/08/04 01:31:58;;;;;;;9.15;4.20;;;;;;;28.64;71.39;101083.91;7391364;19;20086;-60
2022/08/04 01:34:31;;;;;;;6.95;4.45;;;;;;;28.54;70.73;101077.03;7392793;19;20025;-60
2022/08/04 01:37:05;;;;;;;8.85;4.57;;;;;;;28.79;69.94;101085.81;7390332;19;20021;-58
2022/08/04 01:39:42;;;;;;;6.72;3.97;;;;;;;28.79;69.91;101083.13;7391059;19;20014;-60
2022/08/04 01:42:13;;;;;;;7.93;4.10;;;;;;;28.67;69.55;101079.16;7389681;19;20018;-60
2022/08/04 01:44:48;;;;;;;7.60;4.20;;;;;;;28.68;69.22;101079.00;7392170;19;20060;-61
2022/08/04 01:47:21;;;;;;;9.15;4.38;;;;;;;28.71;69.58;101089.41;7391122;19;20025;-57
2022/08/04 01:49:52;;;;;;;11.93;5.05;;;;;;;28.63;69.55;101084.09;7392361;19;20021;-60
2022/08/04 01:52:22;;;;;;;8.13;4.03;;;;;;;28.66;69.23;101072.94;7389211;19;20445;-60
2022/08/04 01:54:52;;;;;;;6.53;4.13;;;;;;;28.72;69.43;101082.19;7389408;19;20018;-59
2022/08/04 01:57:21;;;;;;;8.18;4.68;;;;;;;28.61;69.33;101080.69;7391547;19;20015;-58
2022/08/04 01:59:53;;;;;;;7.35;4.47;;;;;;;28.63;69.57;101078.72;7391197;19;20444;-60
2022/08/04 02:02:24;;;;;;;9.60;4.25;;;;;;;28.61;69.52;101084.28;7389606;19;20029;-59
2022/08/04 02:04:53;;;;;;;8.88;4.55;;;;;;;28.60;69.49;101074.47;7391649;19;20011;-55
2022/08/04 02:07:34;;;;;;;7.18;4.15;;;;;;;28.54;69.82;101077.91;7393605;19;20010;-59
2022/08/04 02:10:07;;;;;;;6.15;4.45;;;;;;;28.52;69.78;101069.16;7390832;19;20494;-60
2022/08/04 02:12:52;;;;;;;12.90;4.68;;;;;;;28.56;69.69;101066.94;7392779;19;20025;-59
2022/08/04 02:15:30;;;;;;;7.30;4.35;;;;;;;28.54;69.39;101064.44;7391031;19;20014;-60
2022/08/04 02:18:05;;;;;;;8.73;4.32;;;;;;;28.47;69.95;101058.91;7393993;19;20486;-60
2022/08/04 02:20:40;;;;;;;9.88;4.63;;;;;;;28.52;69.65;101055.66;7389472;19;20018;-58
2022/08/04 02:23:11;;;;;;;8.63;4.40;;;;;;;28.43;70.04;101054.88;7392061;19;20014;-60
2022/08/04 02:25:50;;;;;;;9.52;4.55;;;;;;;28.36;70.41;101051.25;7393484;19;20010;-60
2022/08/04 02:28:29;;;;;;;8.35;4.22;;;;;;;28.44;70.03;101050.31;7390069;19;20025;-59
2022/08/04 02:31:16;;;;;;;8.85;4.15;;;;;;;28.28;70.91;101044.06;7389513;19;20021;-59
2022/08/04 02:33:47;;;;;;;6.68;4.25;;;;;;;28.24;71.60;101050.81;7389455;19;20019;-59
2022/08/04 02:36:25;;;;;;;9.55;4.30;;;;;;;28.24;71.07;101049.97;7390146;19;20011;-58
2022/08/04 02:38:57;;;;;;;8.50;4.05;;;;;;;28.22;71.03;101046.63;7390130;19;20462;-59
2022/08/04 02:41:28;;;;;;;7.45;4.13;;;;;;;28.21;71.71;101043.09;7393348;19;20466;-58
2022/08/04 02:43:59;;;;;;;8.88;4.80;;;;;;;28.12;71.69;101044.97;7389970;19;20019;-60
2022/08/04 02:46:32;;;;;;;9.80;4.13;;;;;;;28.25;70.96;101039.00;7393791;19;20011;-60
2022/08/04 02:49:04;;;;;;;11.40;4.78;;;;;;;28.21;71.58;101035.03;7392518;19;20018;-59
2022/08/04 02:51:35;;;;;;;10.70;4.50;;;;;;;28.10;71.68;101032.72;7394209;19;20018;-61
2022/08/04 02:54:06;;;;;;;11.43;4.57;;;;;;;28.26;70.97;101040.69;7395722;19;20026;-61
2022/08/04 02:56:38;;;;;;;8.65;4.50;;;;;;;28.27;70.23;101034.28;7399816;19;20007;-61
2022/08/04 02:59:08;;;;;;;7.85;4.88;;;;;;;28.17;70.39;101028.31;7396583;19;20014;-59
2022/08/04 03:01:41;;;;;;;8.50;4.40;;;;;;;28.10;70.91;101030.88;7395050;19;20018;-60
2022/08/04 03:04:27;;;;;;;7.55;4.30;;;;;;;28.10;71.13;101030.03;7395707;19;20041;-57
2022/08/04 03:07:25;;;;;;;10.55;4.05;;;;;;;28.16;70.36;101026.63;7398711;19;20439;-59
2022/08/04 03:10:27;;;;;;;10.38;4.57;;;;;;;28.17;70.31;101027.44;7396008;19;20015;-60
2022/08/04 03:13:31;;;;;;;8.82;4.07;;;;;;;28.15;71.18;101033.03;7399233;19;20006;-60
2022/08/04 03:16:11;;;;;;;9.02;3.92;;;;;;;27.99;71.49;101022.38;7396411;19;20025;-62
2022/08/04 03:19:13;;;;;;;9.85;3.90;;;;;;;27.99;71.56;101015.09;7396023;19;20018;-61
2022/08/04 03:22:13;;;;;;;6.88;4.00;;;;;;;28.06;71.39;101020.63;7394162;19;20026;-60
2022/08/04 03:25:18;;;;;;;8.88;3.80;;;;;;;27.95;71.51;101017.31;7396416;19;20115;-60
2022/08/04 03:28:14;;;;;;;8.23;4.15;;;;;;;27.93;71.82;101018.50;7396437;19;20083;-60
2022/08/04 03:30:59;;;;;;;9.20;4.28;;;;;;;27.92;72.28;101016.81;7399094;19;20034;-60
2022/08/04 03:33:53;;;;;;;7.65;4.40;;;;;;;27.96;71.58;101013.56;7396995;19;20344;-56
2022/08/04 03:36:50;;;;;;;9.50;4.32;;;;;;;27.95;71.06;101013.75;7395631;19;20018;-59
2022/08/04 03:39:38;;;;;;;8.35;4.40;;;;;;;27.94;71.73;101014.75;7395506;19;20019;-59
2022/08/04 03:42:27;;;;;;;7.65;4.10;;;;;;;27.94;71.30;101010.22;7393422;19;20029;-60
2022/08/04 03:45:34;;;;;;;10.88;3.70;;;;;;;28.05;70.91;101009.00;7392141;19;20010;-59
2022/08/04 03:48:21;;;;;;;7.00;4.22;;;;;;;28.00;70.09;101019.50;7395099;19;20015;-59
2022/08/04 03:54:04;;;;;;;7.85;3.90;;;;;;;27.76;71.81;101010.50;7394839;19;20376;-59
2022/08/04 03:56:53;;;;;;;10.68;3.80;;;;;;;28.01;70.37;100996.94;7395372;19;20026;-60
2022/08/04 04:00:00;;;;;;;11.27;4.00;;;;;;;28.01;70.03;100998.75;7397807;19;20019;-57
2022/08/04 04:03:03;;;;;;;11.55;4.03;;;;;;;27.79;71.26;100995.84;7395597;19;20380;-64
2022/08/04 04:05:52;;;;;;;6.10;3.63;;;;;;;27.76;71.71;100997.03;7401454;19;20034;-62
2022/08/04 04:08:50;;;;;;;11.07;3.78;;;;;;;27.83;71.90;101005.25;7396000;19;20026;-64
2022/08/04 04:12:01;;;;;;;11.13;3.97;;;;;;;27.81;71.79;100993.78;7394349;19;20379;-65
2022/08/04 04:14:57;;;;;;;9.45;4.00;;;;;;;27.85;71.93;100995.13;7392175;19;20713;-64
2022/08/04 04:17:58;;;;;;;9.75;3.55;;;;;;;27.87;72.85;100995.81;7396478;19;20022;-64
2022/08/04 04:20:49;;;;;;;13.18;3.92;;;;;;;27.88;72.48;100992.09;7400147;19;20017;-65
2022/08/04 04:23:32;;;;;;;13.80;4.22;;;;;;;27.93;72.59;100989.69;7397092;19;20014;-65
2022/08/04 04:26:06;;;;;;;;;;;;;;;27.97;71.85;100984.81;7402036;19;20014;-64
2022/08/04 04:28:57;;;;;;;7.35;3.88;;;;;;;27.87;72.80;100995.81;7396481;19;19926;-65
2022/08/04 04:31:49;;;;;;;9.40;3.60;;;;;;;27.83;73.12;100989.09;7395952;19;20349;-64
2022/08/04 04:34:28;;;;;;;10.52;4.18;;;;;;;27.66;73.64;100992.91;7394706;19;20022;-64
2022/08/04 04:37:10;;;;;;;9.43;3.88;;;;;;;27.43;75.44;100999.06;7395808;19;20016;-64
2022/08/04 04:39:52;;;;;;;8.90;4.00;;;;;;;27.17;78.37;101000.13;7395491;19;20011;-64
2022/08/04 04:42:44;;;;;;;10.93;3.63;;;;;;;27.31;77.08;101017.41;7394069;19;20022;-64
2022/08/04 04:45:32;;;;;;;7.22;3.97;;;;;;;27.32;76.71;101019.06;7394480;19;20015;-63
2022/08/04 04:48:10;;;;;;;11.40;4.35;;;;;;;27.40;78.03;101011.00;7394824;19;20019;-65
2022/08/04 04:50:56;;;;;;;7.50;4.30;;;;;;;27.20;80.84;101018.59;7393965;19;20025;-64
2022/08/04 04:53:31;;;;;;;7.55;4.03;;;;;;;27.31;80.11;101021.94;7399551;19;20049;-62
2022/08/04 04:56:04;;;;;;;8.82;4.95;;;;;;;27.42;80.54;101026.97;7394879;19;20018;-64
2022/08/04 04:58:38;;;;;;;10.68;4.57;;;;;;;27.56;78.21;101028.09;7393763;19;20490;-63
2022/08/04 05:01:32;;;;;;;10.77;3.88;;;;;;;27.76;75.87;101032.03;7394105;19;20776;-60
2022/08/04 05:04:24;;;;;;;11.10;4.07;;;;;;;27.72;75.33;101030.69;7394751;19;20015;-64
2022/08/04 05:07:21;;;;;;;12.13;3.97;;;;;;;27.88;74.53;101055.88;7394247;19;20011;-63
2022/08/04 05:10:04;;;;;;;13.45;4.03;;;;;;;27.74;75.41;101046.69;7393097;19;20096;-64
2022/08/04 05:12:44;;;;;;;10.57;4.03;;;;;;;27.03;79.78;101051.94;7389161;19;20032;-64
2022/08/04 05:15:15;;;;;;;9.82;3.63;;;;;;;26.56;83.05;101058.81;7391669;19;20014;-64
2022/08/04 05:17:49;;;;;;;9.60;3.97;;;;;;;26.75;82.70;101058.53;7394851;19;20015;-64
2022/08/04 05:20:25;;;;;;;8.82;4.07;;;;;;;27.17;79.21;101055.78;7393442;19;20014;-64
2022/08/04 05:22:58;;;;;;;7.75;3.67;;;;;;;27.26;78.38;101052.06;7392659;19;20057;-64
2022/08/04 05:25:33;;;;;;;10.48;4.70;;;;;;;27.35;77.80;101055.59;7396489;19;20024;-64
2022/08/04 05:28:11;;;;;;;9.63;4.28;;;;;;;27.40;78.39;101054.06;7397607;19;20006;-64
2022/08/04 05:30:47;;;;;;;7.15;4.50;;;;;;;27.52;77.88;101057.22;7393556;19;20018;-64
2022/08/04 05:33:18;;;;;;;8.48;4.60;;;;;;;27.50;78.15;101067.31;7394437;19;20784;-64
2022/08/04 05:35:53;;;;;;;15.55;5.50;;;;;;;27.08;81.83;101063.88;7392463;19;20337;-64
2022/08/04 05:38:27;;;;;;;8.50;5.18;;;;;;;27.06;82.59;101054.28;7393186;19;20018;-64
2022/08/04 05:40:57;;;;;;;15.23;5.10;;;;;;;27.35;81.49;101064.53;7392994;19;20022;-64
2022/08/04 05:43:27;;;;;;;8.85;4.88;;;;;;;27.61;78.93;101060.69;7393104;19;20018;-65
2022/08/04 05:45:57;;;;;;;9.30;5.10;;;;;;;27.89;77.54;101055.69;7392871;19;20014;-63
2022/08/04 05:48:27;;;;;;;10.57;4.95;;;;;;;28.07;76.49;101055.47;7392207;19;20030;-64
2022/08/04 05:50:59;;;;;;;12.82;6.18;;;;;;;28.06;75.61;101056.47;7392895;19;20030;-62
2022/08/04 05:53:29;;;;;;;13.25;5.82;;;;;;;28.15;74.32;101051.88;7392435;19;20010;-64
2022/08/04 05:55:59;;;;;;;14.50;5.75;;;;;;;27.77;77.21;101043.66;7390709;19;20578;-63
2022/08/04 05:58:31;;;;;;;14.40;5.18;;;;;;;28.00;76.01;101045.56;7393939;19;20022;-65
2022/08/04 06:01:01;;;;;;;9.57;5.22;;;;;;;28.24;74.22;101042.75;7392526;19;20019;-63
2022/08/04 06:03:32;;;;;;;10.40;5.82;;;;;;;28.38;73.13;101041.09;7393978;19;20022;-65
2022/08/04 06:06:05;;;;;;;10.98;5.40;;;;;;;28.45;72.53;101052.84;7393293;19;20014;-64
2022/08/04 06:08:34;;;;;;;8.73;5.57;;;;;;;28.45;72.90;101049.31;7392051;19;20032;-64
2022/08/04 06:11:08;;;;;;;10.77;5.10;;;;;;;28.54;72.97;101050.09;7391685;19;20022;-62
2022/08/04 06:13:44;;;;;;;15.00;5.80;;;;;;;28.55;73.23;101051.78;7393582;19;20011;-65
2022/08/04 06:16:16;;;;;;;11.55;5.65;;;;;;;28.61;72.60;101045.66;7395833;19;20014;-63
2022/08/04 06:18:51;;;;;;;11.77;5.78;;;;;;;28.73;71.69;101046.06;7392865;19;20014;-65
2022/08/04 06:21:26;;;;;;;9.38;5.25;;;;;;;28.80;71.77;101050.56;7392307;19;20018;-65
2022/08/04 06:23:57;;;;;;;12.25;5.30;;;;;;;28.94;71.51;101050.78;7392357;19;20339;-64
2022/08/04 06:26:31;;;;;;;9.48;4.93;;;;;;;28.92;70.81;101048.25;7392428;19;20010;-63
2022/08/04 06:29:01;;;;;;;11.27;5.60;;;;;;;28.92;71.63;101047.44;7389788;19;20011;-65
2022/08/04 06:31:45;;;;;;;11.20;5.35;;;;;;;28.99;68.72;101045.69;7393509;19;20025;-64
2022/08/04 06:34:17;;;;;;;13.05;5.30;;;;;;;29.03;69.21;101046.13;7391090;19;20021;-64
2022/08/04 06:36:50;;;;;;;13.32;5.28;;;;;;;29.11;69.63;101033.38;7390716;19;20025;-65
2022/08/04 06:39:20;;;;;;;15.25;6.25;;;;;;;29.15;68.87;101037.41;7391455;19;20014;-64
2022/08/04 06:41:50;;;;;;;12.43;5.13;;;;;;;29.22;68.60;101048.28;7390865;19;20014;-65
2022/08/04 06:44:22;;;;;;;11.35;5.20;;;;;;;29.19;69.03;101054.06;7391996;19;20637;-63
2022/08/04 06:46:52;;;;;;;9.75;4.90;;;;;;;29.06;69.79;101046.63;7392628;19;20013;-65
2022/08/04 06:49:22;;;;;;;9.98;4.25;;;;;;;29.23;67.49;101044.63;7395929;19;20011;-64
2022/08/04 06:51:55;;;;;;;11.70;5.10;;;;;;;29.06;65.99;101041.22;7391444;19;20411;-65
2022/08/04 06:54:24;;;;;;;9.90;4.43;;;;;;;29.23;67.32;101036.53;7392585;19;20014;-65
2022/08/04 06:56:55;;;;;;;11.75;4.65;;;;;;;29.43;67.41;101039.50;7395118;19;20014;-64
2022/08/04 06:59:24;;;;;;;11.23;4.80;;;;;;;29.38;64.46;101041.06;7394927;19;20018;-64
2022/08/04 07:01:54;;;;;;;9.30;4.68;;;;;;;29.55;63.03;101047.94;7392679;19;20019;-65
2022/08/04 07:04:23;;;;;;;8.90;4.80;;;;;;;29.50;61.17;101036.84;7391790;19;20014;-64
2022/08/04 07:06:55;;;;;;;22.63;5.97;;;;;;;29.65;62.19;101043.09;7391825;19;20011;-65
2022/08/04 07:09:24;;;;;;;31.57;5.20;;;;;;;29.77;63.61;101040.72;7390239;19;20018;-64
2022/08/04 07:11:53;;;;;;;16.10;5.50;;;;;;;29.76;62.44;101035.50;7391019;19;20279;-65
2022/08/04 07:14:24;;;;;;;10.90;5.20;;;;;;;29.78;63.01;101037.00;7396582;19;20010;-64
2022/08/04 07:16:54;;;;;;;18.70;5.30;;;;;;;29.81;62.46;101041.19;7393738;19;20109;-64
2022/08/04 07:19:23;;;;;;;12.38;5.30;;;;;;;29.69;62.27;101052.50;7394762;19;20344;-64
2022/08/04 07:21:55;;;;;;;11.40;4.88;;;;;;;29.80;62.47;101045.78;7390793;19;20018;-65
2022/08/04 07:24:31;;;;;;;9.80;4.38;;;;;;;29.97;62.71;101048.25;7393190;19;20034;-64
2022/08/04 07:27:00;;;;;;;11.68;4.63;;;;;;;30.03;62.16;101051.06;7391205;19;20015;-64
2022/08/04 07:29:29;;;;;;;8.85;3.92;;;;;;;30.11;61.74;101060.06;7394166;19;20017;-65
2022/08/04 07:32:00;;;;;;;14.75;4.93;;;;;;;29.95;61.54;101061.16;7392236;19;20014;-65
2022/08/04 07:34:30;;;;;;;13.20;4.75;;;;;;;29.71;61.37;101059.56;7391019;19;20022;-64
2022/08/04 07:37:02;;;;;;;8.73;4.30;;;;;;;29.79;61.18;101068.41;7397648;19;20014;-64
2022/08/04 07:39:35;;;;;;;11.88;4.43;;;;;;;29.69;62.27;101059.75;7398130;19;20015;-63
2022/08/04 07:42:05;;;;;;;11.50;4.20;;;;;;;29.94;60.59;101056.75;7397786;19;20053;-64
2022/08/04 07:44:35;;;;;;;9.07;3.78;;;;;;;29.97;59.92;101056.38;7398197;19;20033;-64
2022/08/04 07:47:07;;;;;;;8.05;3.97;;;;;;;29.97;60.97;101056.38;7401315;19;20006;-64
2022/08/04 07:49:36;;;;;;;13.98;4.03;;;;;;;30.08;58.12;101063.16;7397165;19;20015;-64
2022/08/04 07:52:09;;;;;;;11.02;3.83;;;;;;;29.94;59.14;101052.19;7396213;19;20612;-63
2022/08/04 07:54:39;;;;;;;;;;;;;;;30.19;57.71;101059.94;7398035;19;20022;-64
2022/08/04 07:57:07;;;;;;;8.50;3.97;;;;;;;30.16;56.09;101054.91;7396177;19;19923;-65
2022/08/04 07:59:37;;;;;;;14.80;4.03;;;;;;;30.28;56.25;101053.38;7396398;19;20025;-64
2022/08/04 08:02:05;;;;;;;7.55;3.38;;;;;;;30.49;57.01;101046.31;7395556;19;21283;-62
2022/08/04 08:04:35;;;;;;;8.07;3.50;;;;;;;30.37;53.71;101057.63;7397244;19;20020;-64
2022/08/04 08:07:03;;;;;;;12.07;3.67;;;;;;;30.30;56.28;101059.41;7397532;19;20003;-64
2022/08/04 08:09:35;;;;;;;13.10;3.67;;;;;;;30.53;56.22;101055.72;7396796;19;20498;-64
2022/08/04 08:12:05;;;;;;;8.90;3.60;;;;;;;30.19;54.36;101058.06;7401909;19;20030;-64
2022/08/04 08:14:34;;;;;;;10.50;3.83;;;;;;;30.36;54.29;101058.66;7402087;19;20014;-65
2022/08/04 08:17:04;;;;;;;13.95;3.65;;;;;;;30.58;54.81;101057.84;7395544;19;20037;-65
2022/08/04 08:19:34;;;;;;;10.88;3.63;;;;;;;30.73;54.43;101063.19;7400452;19;20014;-65
2022/08/04 08:22:05;;;;;;;8.35;3.45;;;;;;;30.66;53.59;101060.41;7395938;19;20022;-64
2022/08/04 08:24:38;;;;;;;10.40;3.60;;;;;;;30.79;54.48;101060.53;7396948;19;20018;-64
2022/08/04 08:27:08;;;;;;;12.80;3.83;;;;;;;30.86;55.14;101055.16;7397442;19;20023;-64
2022/08/04 08:29:39;;;;;;;8.65;3.45;;;;;;;30.88;52.56;101055.81;7396472;19;20018;-64
2022/08/04 08:32:12;;;;;;;8.15;3.50;;;;;;;31.04;54.34;101055.53;7395281;19;20093;-64
2022/08/04 08:34:44;;;;;;;8.88;3.60;;;;;;;31.15;52.73;101056.84;7397352;19;20495;-63
2022/08/04 08:37:17;;;;;;;14.40;4.50;;;;;;;31.02;52.74;101051.34;7401296;19;20010;-64
2022/08/04 08:39:57;;;;;;;9.38;3.85;;;;;;;31.03;52.69;101059.25;7395707;19;20018;-65
2022/08/04 08:42:54;;;;;;;8.80;3.58;;;;;;;30.76;53.35;101055.50;7394816;19;20029;-65
2022/08/04 08:45:56;;;;;;;9.40;3.70;;;;;;;30.95;52.59;101050.44;7396728;19;20014;-64
2022/08/04 08:48:55;;;;;;;7.30;3.33;;;;;;;30.97;52.35;101065.44;7394278;19;20459;-64
2022/08/04 08:51:51;;;;;;;8.05;3.67;;;;;;;31.00;53.84;101066.91;7392194;19;20018;-64
2022/08/04 08:54:49;;;;;;;9.95;3.80;;;;;;;31.21;54.52;101060.66;7395461;19;20022;-64
2022/08/04 08:57:41;;;;;;;7.38;3.50;;;;;;;31.35;55.10;101053.41;7395928;19;20026;-64
2022/08/04 09:00:15;;;;;;;10.73;4.20;;;;;;;31.42;54.89;101059.69;7395504;19;20480;-65
2022/08/04 09:03:14;;;;;;;7.43;3.85;;;;;;;31.36;55.54;101057.81;7393919;19;20357;-65
2022/08/04 09:06:06;;;;;;;12.43;4.63;;;;;;;31.59;55.07;101054.00;7396054;19;20127;-65
2022/08/04 09:08:57;;;;;;;11.95;4.50;;;;;;;31.28;56.17;101058.81;7395261;19;20011;-65
2022/08/04 09:11:32;;;;;;;8.65;4.13;;;;;;;31.56;55.84;101063.31;7392975;19;20022;-65
2022/08/04 09:14:11;;;;;;;9.90;4.10;;;;;;;31.40;54.98;101064.50;7396528;19;20024;-65
2022/08/04 09:16:46;;;;;;;9.82;4.30;;;;;;;31.16;55.70;101071.22;7394305;19;20027;-65
2022/08/04 09:19:21;;;;;;;8.32;3.47;;;;;;;31.45;55.15;101074.72;7394781;19;20022;-65
2022/08/04 09:21:58;;;;;;;10.43;3.47;;;;;;;31.62;55.88;101078.78;7394291;19;20423;-65
2022/08/04 09:24:45;;;;;;;12.32;4.43;;;;;;;31.80;54.98;101082.84;7395039;19;20010;-65
2022/08/04 09:27:20;;;;;;;10.13;4.18;;;;;;;31.76;54.77;101078.88;7398498;19;20372;-64
2022/08/04 09:30:01;;;;;;;9.60;4.57;;;;;;;31.67;56.18;101076.31;7395197;19;20061;-64
2022/08/04 09:32:40;;;;;;;8.23;4.15;;;;;;;31.55;56.20;101080.59;7394272;19;20388;-65
2022/08/04 09:35:22;;;;;;;10.60;4.60;;;;;;;31.59;56.32;101089.22;7396502;19;20025;-64
2022/08/04 09:38:02;;;;;;;12.05;4.38;;;;;;;31.86;55.03;101077.44;7394057;19;20125;-65
2022/08/04 09:40:36;;;;;;;8.70;5.25;;;;;;;31.63;53.57;101085.06;7393376;19;20018;-64
2022/08/04 09:43:16;;;;;;;10.05;4.70;;;;;;;31.94;54.08;101086.44;7397078;19;20101;-64
2022/08/04 09:45:58;;;;;;;11.18;4.80;;;;;;;31.75;54.51;101088.84;7394446;19;20022;-65
2022/08/04 09:48:37;;;;;;;12.88;5.55;;;;;;;31.69;54.55;101095.91;7394057;19;20033;-63
2022/08/04 09:51:15;;;;;;;10.10;4.97;;;;;;;31.94;54.57;101091.84;7393817;19;20360;-64
2022/08/04 09:53:55;;;;;;;11.65;5.25;;;;;;;31.91;54.14;101107.50;7394857;19;20011;-63
2022/08/04 09:56:32;;;;;;;12.60;4.90;;;;;;;32.05;53.09;101112.94;7393574;19;20375;-64
2022/08/04 09:59:12;;;;;;;10.00;5.25;;;;;;;32.11;53.65;101111.31;7392555;19;20017;-64
2022/08/04 10:01:45;;;;;;;14.25;7.25;;;;;;;32.11;53.71;101108.59;7397241;19;20380;-62
2022/08/04 10:04:18;;;;;;;10.57;4.32;;;;;;;32.17;52.78;101100.50;7393637;19;20014;-64
2022/08/04 10:07:10;;;;;;;8.30;4.10;;;;;;;32.03;53.02;101101.47;7393822;19;20403;-63
2022/08/04 10:09:51;;;;;;;10.98;4.20;;;;;;;31.74;51.24;101100.75;7392342;19;20030;-63
2022/08/04 10:12:37;;;;;;;10.35;3.70;;;;;;;31.96;51.95;101106.88;7392177;19;20361;-64
2022/08/04 10:15:15;;;;;;;9.85;3.67;;;;;;;31.85;51.86;101112.88;7394704;19;20022;-58
2022/08/04 10:18:10;;;;;;;6.20;3.60;;;;;;;32.02;52.33;101118.78;7397219;19;20049;-63
2022/08/04 10:20:50;;;;;;;9.07;3.83;;;;;;;31.76;53.29;101119.50;7395046;19;20022;-59
2022/08/04 10:23:28;;;;;;;12.27;3.17;;;;;;;31.81;52.88;101128.72;7396098;19;20021;-62
2022/08/04 10:26:09;;;;;;;8.00;3.08;;;;;;;31.81;52.23;101125.16;7392637;19;20006;-62
2022/08/04 10:28:45;;;;;;;6.57;3.00;;;;;;;31.15;51.04;101119.13;7394829;19;20014;-63
2022/08/04 10:31:24;;;;;;;8.35;3.35;;;;;;;31.45;51.53;101128.88;7393576;19;20030;-64
2022/08/04 10:34:02;;;;;;;7.00;2.83;;;;;;;31.63;50.88;101129.25;7396204;19;20018;-64
2022/08/04 10:36:41;;;;;;;8.45;3.10;;;;;;;31.51;50.90;101130.81;7394531;19;20006;-64
2022/08/04 10:39:14;;;;;;;7.70;3.30;;;;;;;31.04;53.41;101144.03;7393102;19;20015;-62
2022/08/04 10:41:53;;;;;;;12.77;3.17;;;;;;;31.02;55.12;101163.16;7391851;19;20081;-62
2022/08/04 10:44:36;;;;;;;13.07;3.28;;;;;;;31.07;55.27;101172.56;7393200;19;20006;-61
2022/08/04 10:47:09;;;;;;;8.00;3.45;;;;;;;31.02;54.87;101167.72;7393075;19;20023;-64
2022/08/04 10:49:46;;;;;;;9.30;3.90;;;;;;;31.12;54.73;101180.94;7397379;19;20010;-62
2022/08/04 10:52:24;;;;;;;9.57;2.85;;;;;;;31.25;54.49;101181.06;7393055;19;20368;-63
2022/08/04 10:54:59;;;;;;;7.80;3.47;;;;;;;31.02;56.23;101187.53;7394763;19;20030;-63
2022/08/04 10:57:35;;;;;;;8.93;3.47;;;;;;;30.78;59.07;101199.53;7392921;19;20011;-63
2022/08/04 11:00:08;;;;;;;8.40;3.47;;;;;;;30.43;63.15;101206.63;7393236;19;20014;-64
2022/08/04 11:02:44;;;;;;;;;;;;;;;29.97;69.62;101205.81;7392195;19;20038;-63
2022/08/04 11:05:20;;;;;;;;;;;;;;;29.73;81.23;101223.13;7394762;19;19919;-63
2022/08/04 11:07:54;;;;;;;;;;;;;;;29.13;89.43;101233.75;7393496;19;19954;-63
2022/08/04 11:10:24;;;;;;;;;;;;;;;28.39;95.83;101250.34;7395090;19;20352;-62
2022/08/04 11:12:55;;;;;;;;;;;;;;;27.99;100.00;101260.25;7398174;19;19927;-62
2022/08/04 11:15:26;;;;;;;;;;;;;;;27.62;100.00;101264.31;7400688;19;19918;-63
2022/08/04 11:17:57;;;;;;;;;;;;;;;27.73;100.00;101258.56;7398454;19;19915;-62
2022/08/04 11:20:31;;;;;;;;;;;;;;;27.42;100.00;101263.81;7399060;19;19994;-61
2022/08/04 11:23:04;;;;;;;;;;;;;;;27.31;100.00;101256.91;7402339;19;19925;-63
2022/08/04 11:25:36;;;;;;;;;;;;;;;27.25;100.00;101260.25;7402259;19;20363;-62
2022/08/04 11:28:10;;;;;;;;;;;;;;;27.52;100.00;101253.72;7400424;19;19925;-64
2022/08/04 11:30:42;;;;;;;;;;;;;;;27.66;100.00;101208.28;7402038;19;20260;-61
2022/08/04 11:33:19;;;;;;;;;;;;;;;27.61;100.00;101203.38;7399430;19;20256;-58
2022/08/04 11:35:54;;;;;;;;;;;;;;;27.04;100.00;101221.22;7399356;19;20334;-63
2022/08/04 11:38:26;;;;;;;;;;;;;;;27.44;100.00;101199.91;7401607;19;19990;-60
2022/08/04 11:40:58;;;;;;;;;;;;;;;27.60;100.00;101189.09;7398808;19;19975;-61
2022/08/04 11:43:28;;;;;;;;;;;;;;;27.50;100.00;101179.53;7399495;19;19925;-63
2022/08/04 11:46:00;;;;;;;;;;;;;;;27.58;100.00;101193.81;7400362;19;19932;-62
2022/08/04 11:48:34;;;;;;;;;;;;;;;27.77;100.00;101207.94;7398692;19;19970;-63
2022/08/04 11:51:05;;;;;;;;;;;;;;;27.78;100.00;101225.75;7399525;19;20002;-62
2022/08/04 11:53:38;;;;;;;;;;;;;;;27.56;100.00;101230.81;7399614;19;19947;-60
2022/08/04 11:56:09;;;;;;;;;;;;;;;27.75;100.00;101243.09;7403935;19;20247;-61
2022/08/04 11:58:38;;;;;;;;;;;;;;;28.11;100.00;101226.53;7398715;19;19933;-61
2022/08/04 12:01:13;;;;;;;;;;;;;;;27.66;100.00;101245.97;7398647;19;19930;-63
2022/08/04 12:03:49;;;;;;;;;;;;;;;27.99;100.00;101237.88;7402155;19;20324;-55
2022/08/04 12:06:24;;;;;;;;;;;;;;;28.31;100.00;101223.41;7398436;19;20372;-59
2022/08/04 12:09:04;;;;;;;;;;;;;;;28.48;100.00;101210.72;7399464;19;20248;-55
2022/08/04 12:11:41;;;;;;;;;;;;;;;28.62;100.00;101209.16;7399735;19;19922;-62
2022/08/04 12:14:14;;;;;;;;;;;;;;;28.77;100.00;101201.97;7399363;19;19919;-62
2022/08/04 12:16:46;;;;;;;;;;;;;;;28.78;100.00;101200.13;7398316;19;19922;-60
2022/08/04 12:19:19;;;;;;;;;;;;;;;28.74;100.00;101198.78;7397818;19;19930;-61
2022/08/04 12:21:53;;;;;;;;;;;;;;;28.76;100.00;101194.91;7395714;19;20304;-65